This is the latest recevied weather packets stored in our database for station/object N7CEE. If no packets are shown the sender has not sent any weather packets the latest 10 day(s).
| Time | Temp. | Humidity | Pressure | Rain* | Wind** | Luminosity | Snow |
|---|---|---|---|---|---|---|---|
| 1777400640 | 15° C | 22% | 1025.3 hPa | 0 mm | - | 297 W/m² | - |
| 1777399125 | 13.89° C | 23% | 1025.5 hPa | 0 mm | - | 788 W/m² | - |
| 1777398519 | 12.78° C | 24% | 1025.6 hPa | 0 mm | - | 710 W/m² | - |
| 1777397299 | 11.67° C | 25% | 1025.6 hPa | 0 mm | - | 674 W/m² | - |
| 1777396085 | 12.22° C | 24% | 1025.5 hPa | 0 mm | - | 688 W/m² | - |
| 1777394871 | 10.56° C | 29% | 1025.7 hPa | 0 mm | - | 545 W/m² | - |
| 1777394567 | 10.56° C | 29% | 1025.6 hPa | 0 mm | - | 490 W/m² | - |
| 1777394264 | 10.56° C | 30% | 1025.6 hPa | 0 mm | - | 524 W/m² | - |
| 1777393960 | 11.11° C | 31% | 1025.5 hPa | 0 mm | - | 433 W/m² | - |
| 1777393659 | 10.56° C | 33% | 1025.7 hPa | 0 mm | - | 477 W/m² | - |
| 1777390619 | 7.78° C | 37% | 1025.3 hPa | 0 mm | - | 46 W/m² | - |
| 1777390316 | 7.22° C | 38% | 1025.6 hPa | 0 mm | - | 48 W/m² | - |
| 1777390011 | 7.22° C | 41% | 1025.3 hPa | 0 mm | - | 37 W/m² | - |
| 1777389709 | 7.22° C | 42% | 1025.2 hPa | 0 mm | - | 87 W/m² | - |
| 1777388498 | 6.67° C | 44% | 1025.3 hPa | 0 mm | - | 31 W/m² | - |
| 1777388192 | 6.11° C | 44% | 1025 hPa | 0 mm | - | 52 W/m² | - |
| 1777387888 | 6.11° C | 44% | 1025 hPa | 0 mm | - | 41 W/m² | - |
| 1777387585 | 5° C | 48% | 1025.1 hPa | 0 mm | - | 30 W/m² | - |
| 1777386975 | 3.33° C | 53% | 1025 hPa | 0 mm | - | 49 W/m² | - |
| 1777386673 | 2.78° C | 56% | 1024.9 hPa | 0 mm | - | 26 W/m² | - |
| 1777386370 | 2.78° C | 56% | 1024.7 hPa | 0 mm | - | 26 W/m² | - |
| 1777386067 | 2.22° C | 57% | 1024.7 hPa | 0 mm | - | 34 W/m² | - |
| 1777385763 | 1.67° C | 59% | 1024.7 hPa | 0 mm | - | 50 W/m² | - |
| 1777385461 | 1.11° C | 60% | 1024.6 hPa | 0 mm | - | 43 W/m² | - |
| 1777384853 | 0° C | 61% | 1024.6 hPa | 0 mm | - | 25 W/m² | - |
* Rain latest hour (hover to see other rain measurements)
** Current wind speed in m/s (hover to see current wind gust speed)